Time;durP1;ratioP1;P1;durP2;ratioP2;P2;SDS_P1;SDS_P2;PMS_P1;PMS_P2;Temp;Humidity;BMP_temperature;BMP_pressure;BME280_temperature;BME280_humidity;BME280_pressure;Samples;Min_cycle;Max_cycle;Signal;HPM_P1;HPM_P2
2023/05/20 00:00:57;;;;;;;4.50;1.65;;;14.10;1.00;;;;;;4991931;28;20038;-83
2023/05/20 00:03:24;;;;;;;2.38;1.52;;;14.00;1.00;;;;;;5015277;28;20481;-81
2023/05/20 00:05:50;;;;;;;3.05;1.73;;;13.90;1.00;;;;;;5013238;28;20052;-83
2023/05/20 00:08:18;;;;;;;3.30;1.50;;;13.80;1.00;;;;;;5014372;28;20034;-84
2023/05/20 00:10:44;;;;;;;2.83;1.58;;;13.80;1.00;;;;;;5029075;28;20041;-84
2023/05/20 00:13:10;;;;;;;2.63;1.60;;;13.70;1.00;;;;;;5012813;28;20041;-84
2023/05/20 00:15:37;;;;;;;1.98;1.38;;;13.60;1.00;;;;;;5013009;28;20046;-83
2023/05/20 00:18:03;;;;;;;4.70;1.40;;;13.40;1.00;;;;;;5014392;28;20033;-83
2023/05/20 00:20:29;;;;;;;3.17;1.70;;;13.30;1.00;;;;;;5013481;28;20025;-84
2023/05/20 00:22:56;;;;;;;5.90;1.77;;;13.30;1.00;;;;;;5014349;28;20037;-85
2023/05/20 00:25:22;;;;;;;3.47;1.33;;;13.20;1.00;;;;;;5019522;28;20037;-86
2023/05/20 00:27:48;;;;;;;4.07;1.95;;;13.10;1.00;;;;;;5013187;28;20041;-84
2023/05/20 00:30:14;;;;;;;3.45;1.50;;;12.90;1.00;;;;;;5017200;28;20038;-83
2023/05/20 00:32:40;;;;;;;5.70;1.40;;;12.90;1.00;;;;;;5013347;28;20053;-84
2023/05/20 00:35:08;;;;;;;5.63;1.30;;;12.70;1.00;;;;;;5012073;28;20152;-84
2023/05/20 00:37:34;;;;;;;6.10;1.90;;;12.60;1.00;;;;;;5012866;28;20037;-84
2023/05/20 00:40:00;;;;;;;4.05;1.70;;;12.60;1.00;;;;;;5010296;28;20041;-84
2023/05/20 00:42:27;;;;;;;4.43;1.67;;;12.50;1.00;;;;;;5012816;28;20026;-85
2023/05/20 00:44:55;;;;;;;3.22;1.58;;;12.40;1.00;;;;;;5005898;28;20046;-87
2023/05/20 00:47:33;;;;;;;2.78;1.67;;;12.30;1.00;;;;;;5008546;28;20043;-85
2023/05/20 00:49:59;;;;;;;6.15;1.67;;;12.20;1.00;;;;;;5012213;28;20025;-85
2023/05/20 00:52:29;;;;;;;4.05;1.70;;;12.00;1.00;;;;;;5016967;28;20025;-84
2023/05/20 00:54:56;;;;;;;3.85;2.13;;;12.00;1.00;;;;;;5018754;28;20042;-85
2023/05/20 00:57:22;;;;;;;3.10;1.70;;;11.90;1.00;;;;;;5019033;28;20400;-84
2023/05/20 00:59:49;;;;;;;3.25;1.52;;;11.80;1.00;;;;;;5010797;28;20044;-84
2023/05/20 01:02:15;;;;;;;4.78;1.55;;;11.70;1.00;;;;;;5008479;28;20061;-85
2023/05/20 01:04:45;;;;;;;4.53;1.83;;;11.50;1.00;;;;;;5011454;28;20391;-84
2023/05/20 01:07:14;;;;;;;5.82;2.47;;;11.40;1.60;;;;;;4995131;28;20033;-85
2023/05/20 01:09:41;;;;;;;4.95;2.47;;;11.40;1.10;;;;;;5008320;28;20057;-85
2023/05/20 01:12:38;;;;;;;3.55;2.05;;;11.40;3.10;;;;;;5013277;28;20034;-84
2023/05/20 01:15:08;;;;;;;4.47;2.05;;;11.40;1.00;;;;;;5029732;28;20053;-84
2023/05/20 01:17:38;;;;;;;4.85;1.95;;;11.40;3.70;;;;;;5007670;28;20045;-83
2023/05/20 01:20:09;;;;;;;5.75;1.95;;;11.40;3.10;;;;;;5017003;28;20038;-83
2023/05/20 01:22:55;;;;;;;4.93;2.00;;;11.40;6.00;;;;;;5018840;28;20045;-84
2023/05/20 01:25:22;;;;;;;4.07;2.53;;;11.30;11.00;;;;;;5010967;28;20038;-84
2023/05/20 01:27:48;;;;;;;5.03;1.95;;;11.30;12.20;;;;;;5013243;28;20030;-84
2023/05/20 01:30:15;;;;;;;3.60;1.90;;;11.20;14.70;;;;;;5010314;28;20041;-85
2023/05/20 01:32:56;;;;;;;4.80;2.35;;;11.20;20.80;;;;;;5012995;28;20033;-84
2023/05/20 01:35:22;;;;;;;;;;;11.20;25.80;;;;;;5011704;28;20383;-83
2023/05/20 01:37:52;;;;;;;2.85;1.77;;;11.10;31.50;;;;;;5013124;28;19913;-82
2023/05/20 01:40:20;;;;;;;3.67;1.80;;;11.10;31.10;;;;;;4994039;28;20038;-85
2023/05/20 01:42:51;;;;;;;4.03;1.83;;;11.10;31.30;;;;;;5012340;28;20367;-85
2023/05/20 01:45:18;;;;;;;4.32;2.03;;;11.10;35.00;;;;;;5012030;28;20042;-85
2023/05/20 01:47:45;;;;;;;3.38;1.80;;;11.00;44.80;;;;;;5005552;28;20050;-85
2023/05/20 01:50:11;;;;;;;2.88;2.00;;;10.90;51.90;;;;;;5002241;28;20022;-85
2023/05/20 01:52:37;;;;;;;3.70;1.73;;;10.90;61.90;;;;;;5024709;28;20044;-85
2023/05/20 01:55:04;;;;;;;4.40;2.10;;;10.80;67.70;;;;;;4991360;28;20045;-86
2023/05/20 01:57:31;;;;;;;4.93;2.50;;;10.80;77.70;;;;;;4989899;28;20049;-83
2023/05/20 01:59:57;;;;;;;4.22;2.05;;;10.80;88.30;;;;;;5024925;28;20046;-86
2023/05/20 02:02:23;;;;;;;3.08;1.55;;;10.70;92.00;;;;;;5008519;28;20053;-85
2023/05/20 02:04:53;;;;;;;3.72;1.98;;;10.70;93.50;;;;;;5010964;28;20360;-84
2023/05/20 02:07:19;;;;;;;3.92;2.17;;;10.60;95.20;;;;;;5011128;28;20041;-83
2023/05/20 02:09:46;;;;;;;3.72;2.38;;;10.60;97.30;;;;;;5005671;28;20399;-82
2023/05/20 02:12:15;;;;;;;5.45;2.13;;;10.70;96.70;;;;;;5027522;28;20057;-84
2023/05/20 02:14:46;;;;;;;3.28;2.22;;;10.70;95.40;;;;;;5014455;28;20037;-90
2023/05/20 02:17:16;;;;;;;2.92;2.25;;;10.70;95.50;;;;;;4998080;28;20044;-85
2023/05/20 02:19:44;;;;;;;2.53;1.75;;;10.80;93.00;;;;;;5009868;28;20045;-85
2023/05/20 02:22:10;;;;;;;5.22;2.50;;;10.80;91.80;;;;;;5016387;28;20022;-85
2023/05/20 02:24:36;;;;;;;3.90;1.98;;;10.80;92.20;;;;;;5011446;28;20033;-83
2023/05/20 02:27:05;;;;;;;5.07;2.00;;;10.90;92.00;;;;;;5013193;28;20044;-88
2023/05/20 02:29:33;;;;;;;4.85;2.45;;;10.80;92.20;;;;;;5009531;28;20042;-84
2023/05/20 02:31:59;;;;;;;3.67;1.95;;;10.80;93.50;;;;;;5010446;28;20030;-86
2023/05/20 02:34:29;;;;;;;4.45;2.25;;;10.80;94.70;;;;;;5010852;28;20044;-84
2023/05/20 02:36:55;;;;;;;4.43;2.17;;;10.80;94.90;;;;;;4991437;28;20046;-83
2023/05/20 02:39:22;;;;;;;4.53;1.90;;;10.80;96.80;;;;;;5014832;28;20060;-83
2023/05/20 02:41:49;;;;;;;4.32;1.65;;;10.80;97.90;;;;;;5004691;28;20475;-83
2023/05/20 02:44:16;;;;;;;6.47;2.53;;;10.80;99.80;;;;;;4999770;28;20057;-84
2023/05/20 02:46:43;;;;;;;4.20;2.53;;;10.70;99.90;;;;;;5010157;28;20042;-84
2023/05/20 02:49:09;;;;;;;6.55;2.28;;;10.70;99.90;;;;;;5009576;28;20056;-84
2023/05/20 02:51:35;;;;;;;6.57;2.72;;;10.70;99.90;;;;;;5010547;28;20030;-83
2023/05/20 02:54:02;;;;;;;4.72;2.40;;;10.70;99.90;;;;;;5026747;28;20064;-85
2023/05/20 02:56:28;;;;;;;5.20;1.70;;;10.70;99.90;;;;;;5012211;28;20036;-84
2023/05/20 02:58:54;;;;;;;5.50;2.67;;;10.60;99.90;;;;;;5012566;28;20030;-85
2023/05/20 03:01:22;;;;;;;4.43;2.22;;;10.70;99.90;;;;;;5012623;28;20029;-82
2023/05/20 03:03:48;;;;;;;2.97;2.00;;;10.70;99.90;;;;;;5005750;28;20054;-81
2023/05/20 03:06:14;;;;;;;5.07;2.50;;;10.70;99.90;;;;;;5010948;28;20037;-83
2023/05/20 03:08:41;;;;;;;7.95;4.20;;;10.70;99.90;;;;;;5023747;28;20045;-82
2023/05/20 03:11:07;;;;;;;7.18;2.33;;;10.80;99.90;;;;;;5008757;28;20026;-80
2023/05/20 03:13:33;;;;;;;4.10;2.38;;;10.70;99.90;;;;;;5027196;28;20037;-85
2023/05/20 03:16:00;;;;;;;6.75;2.50;;;10.80;99.90;;;;;;5010490;28;20463;-85
2023/05/20 03:18:29;;;;;;;6.95;2.40;;;10.80;99.90;;;;;;4998525;28;20499;-83
2023/05/20 03:20:55;;;;;;;9.20;2.65;;;10.80;99.90;;;;;;5009566;28;20125;-84
2023/05/20 03:23:21;;;;;;;4.85;3.08;;;10.80;99.90;;;;;;5010278;28;20037;-82
2023/05/20 03:25:48;;;;;;;5.00;2.15;;;10.80;99.90;;;;;;5010530;28;20046;-80
2023/05/20 03:28:14;;;;;;;4.30;2.50;;;10.90;99.90;;;;;;4997014;28;20471;-86
2023/05/20 03:30:40;;;;;;;4.03;2.00;;;10.90;99.90;;;;;;5020097;28;20363;-82
2023/05/20 03:33:07;;;;;;;6.18;2.53;;;11.00;99.90;;;;;;5005743;28;20360;-81
2023/05/20 03:35:33;;;;;;;3.90;2.42;;;11.00;99.90;;;;;;4994415;28;20386;-82
2023/05/20 03:38:00;;;;;;;5.97;2.38;;;11.00;99.90;;;;;;4995108;28;20057;-81
2023/05/20 03:40:27;;;;;;;3.67;2.10;;;11.00;99.90;;;;;;4994269;28;20045;-81
2023/05/20 03:42:54;;;;;;;3.75;2.05;;;11.10;99.90;;;;;;4995587;28;20034;-80
2023/05/20 03:45:21;;;;;;;4.18;2.33;;;11.20;99.90;;;;;;4994251;28;20057;-82
2023/05/20 03:47:57;;;;;;;3.72;2.33;;;11.20;99.90;;;;;;4980434;28;20045;-82
2023/05/20 03:50:23;;;;;;;4.28;1.88;;;11.20;99.90;;;;;;4978296;28;20623;-87
2023/05/20 03:52:49;;;;;;;7.75;2.17;;;11.20;99.90;;;;;;4995164;28;20031;-85
2023/05/20 03:55:19;;;;;;;4.68;2.30;;;11.30;99.90;;;;;;4994398;28;20471;-84
2023/05/20 03:57:46;;;;;;;5.35;2.38;;;11.30;99.90;;;;;;4978606;28;20051;-87
2023/05/20 04:00:15;;;;;;;4.85;2.55;;;11.30;99.90;;;;;;4993875;28;20041;-85
2023/05/20 04:02:44;;;;;;;3.15;2.35;;;11.40;99.90;;;;;;4996075;28;20049;-81
2023/05/20 04:05:13;;;;;;;5.60;2.38;;;11.40;99.90;;;;;;4994361;28;20049;-82
2023/05/20 04:07:40;;;;;;;4.32;2.25;;;11.40;99.90;;;;;;4994583;28;20061;-83
2023/05/20 04:10:08;;;;;;;4.55;2.55;;;11.40;99.90;;;;;;4990291;28;20375;-86
2023/05/20 04:12:37;;;;;;;4.47;2.30;;;11.40;99.90;;;;;;4970882;28;20041;-85
2023/05/20 04:15:05;;;;;;;4.47;2.42;;;11.40;99.90;;;;;;4982551;28;20055;-88
2023/05/20 04:17:40;;;;;;;4.30;2.35;;;11.40;99.90;;;;;;4974463;28;20053;-83
2023/05/20 04:20:07;;;;;;;5.65;2.72;;;11.50;99.90;;;;;;4994570;28;20038;-84
2023/05/20 04:22:35;;;;;;;3.22;2.05;;;11.50;99.90;;;;;;4978062;28;20038;-84
2023/05/20 04:25:03;;;;;;;5.80;2.40;;;11.50;99.90;;;;;;4978171;28;20494;-84
2023/05/20 04:27:32;;;;;;;5.32;2.58;;;11.60;99.90;;;;;;4993925;28;20487;-85
2023/05/20 04:30:01;;;;;;;5.70;2.30;;;11.60;99.90;;;;;;4994155;28;20034;-85
2023/05/20 04:32:27;;;;;;;4.00;2.60;;;11.50;99.90;;;;;;4994182;28;20050;-86
2023/05/20 04:34:54;;;;;;;3.95;2.72;;;11.60;99.90;;;;;;5007542;28;20046;-85
2023/05/20 04:37:22;;;;;;;5.00;2.55;;;11.60;99.90;;;;;;5027499;28;20049;-84
2023/05/20 04:39:48;;;;;;;5.13;3.13;;;11.60;99.90;;;;;;5014512;28;20052;-82
2023/05/20 04:42:20;;;;;;;5.22;3.25;;;11.60;99.90;;;;;;5008200;28;20034;-84
2023/05/20 04:44:47;;;;;;;5.53;2.67;;;11.70;99.90;;;;;;5014294;28;20037;-86
2023/05/20 04:47:14;;;;;;;3.60;2.28;;;11.70;99.90;;;;;;5013032;28;20049;-87
2023/05/20 04:49:41;;;;;;;4.75;2.53;;;11.80;99.90;;;;;;5012883;28;20038;-87
2023/05/20 04:52:07;;;;;;;4.50;2.33;;;11.80;99.90;;;;;;4994433;28;20452;-88
2023/05/20 04:54:34;;;;;;;3.67;2.22;;;11.80;99.90;;;;;;5013029;28;20044;-84
2023/05/20 04:57:00;;;;;;;8.82;2.67;;;11.80;99.90;;;;;;4996121;28;20459;-84
2023/05/20 04:59:26;;;;;;;6.85;2.85;;;11.80;99.90;;;;;;4995754;28;20626;-85
2023/05/20 05:01:52;;;;;;;5.70;2.67;;;11.90;99.90;;;;;;5009449;28;20038;-85
2023/05/20 05:04:18;;;;;;;3.95;2.65;;;11.90;99.90;;;;;;5005156;28;20037;-84
2023/05/20 05:06:47;;;;;;;5.40;2.55;;;11.90;99.90;;;;;;5003899;28;20041;-85
2023/05/20 05:09:14;;;;;;;5.20;2.70;;;11.90;99.90;;;;;;5011246;28;20379;-86
2023/05/20 05:11:42;;;;;;;3.90;2.28;;;12.00;99.90;;;;;;5012582;28;20026;-84
2023/05/20 05:14:08;;;;;;;5.10;2.80;;;12.00;99.90;;;;;;5011910;28;20038;-84
2023/05/20 05:16:35;;;;;;;4.15;2.53;;;12.00;99.90;;;;;;5010739;28;20050;-80
2023/05/20 05:19:03;;;;;;;5.53;2.85;;;12.00;99.90;;;;;;5009089;28;20455;-85
2023/05/20 05:21:32;;;;;;;8.70;3.17;;;12.00;99.90;;;;;;5028451;28;20038;-85
2023/05/20 05:23:58;;;;;;;3.97;2.72;;;12.10;99.90;;;;;;4996561;28;20623;-85
2023/05/20 05:26:25;;;;;;;4.07;2.45;;;12.10;99.90;;;;;;4997278;28;20061;-86
2023/05/20 05:28:53;;;;;;;3.70;2.70;;;12.20;99.90;;;;;;4996941;28;20138;-84
2023/05/20 05:31:19;;;;;;;5.72;2.60;;;12.30;99.90;;;;;;5021484;28;20383;-84
2023/05/20 05:33:46;;;;;;;4.40;2.95;;;12.30;99.90;;;;;;5011333;28;20046;-85
2023/05/20 05:36:12;;;;;;;3.53;2.25;;;12.40;99.90;;;;;;5012966;28;20036;-83
2023/05/20 05:38:38;;;;;;;4.25;2.45;;;12.50;96.80;;;;;;5012477;28;20038;-84
2023/05/20 05:41:04;;;;;;;5.47;3.15;;;12.50;94.70;;;;;;5011885;28;20045;-85
2023/05/20 05:43:34;;;;;;;3.33;2.25;;;12.60;94.50;;;;;;5013576;28;20482;-81
2023/05/20 05:46:01;;;;;;;6.32;3.10;;;12.70;91.20;;;;;;5009072;28;20048;-82
2023/05/20 05:48:28;;;;;;;7.55;2.22;;;12.80;84.50;;;;;;5010251;28;20583;-84
2023/05/20 05:50:55;;;;;;;3.83;2.50;;;12.90;77.90;;;;;;4989137;28;20038;-89
2023/05/20 05:53:21;;;;;;;5.95;3.00;;;13.00;73.20;;;;;;5010450;28;20045;-81
2023/05/20 05:55:48;;;;;;;3.75;3.20;;;13.00;69.00;;;;;;4995882;28;20045;-85
2023/05/20 05:58:16;;;;;;;3.13;2.28;;;13.10;72.60;;;;;;4996583;28;20053;-82
2023/05/20 06:00:42;;;;;;;3.85;2.90;;;13.30;61.90;;;;;;4993583;28;20045;-80
2023/05/20 06:03:09;;;;;;;7.40;2.70;;;13.50;48.30;;;;;;5010637;28;20041;-86
2023/05/20 06:05:37;;;;;;;4.57;2.88;;;13.60;48.90;;;;;;5008136;28;20038;-81
2023/05/20 06:08:03;;;;;;;6.32;2.67;;;13.70;36.50;;;;;;4986807;28;20073;-83
2023/05/20 06:10:32;;;;;;;5.82;2.92;;;13.70;37.90;;;;;;5006695;28;20062;-80
2023/05/20 06:12:59;;;;;;;5.47;2.35;;;13.80;35.90;;;;;;4995391;28;20046;-83
2023/05/20 06:15:26;;;;;;;3.50;2.75;;;13.90;34.90;;;;;;5026781;28;20049;-85
2023/05/20 06:17:52;;;;;;;4.65;1.88;;;14.10;26.80;;;;;;5007693;28;20029;-83
2023/05/20 06:20:19;;;;;;;4.15;2.25;;;14.10;29.40;;;;;;5018526;28;20037;-85
2023/05/20 06:22:45;;;;;;;5.35;2.63;;;14.30;25.10;;;;;;5023348;28;20045;-80
2023/05/20 06:25:13;;;;;;;11.32;2.75;;;14.20;24.80;;;;;;5010182;28;20042;-82
2023/05/20 06:27:40;;;;;;;4.28;2.67;;;14.30;25.40;;;;;;4993227;28;20038;-79
2023/05/20 06:30:11;;;;;;;6.32;2.85;;;14.60;18.90;;;;;;5007206;28;20042;-80
2023/05/20 06:32:37;;;;;;;4.38;3.05;;;14.70;11.30;;;;;;5011964;28;20034;-81
2023/05/20 06:35:05;;;;;;;3.38;2.40;;;14.70;12.80;;;;;;5010699;28;20049;-81
2023/05/20 06:37:31;;;;;;;7.47;2.53;;;15.00;4.20;;;;;;4990659;28;20128;-81
2023/05/20 06:39:57;;;;;;;4.72;3.08;;;15.10;1.00;;;;;;5011803;28;20424;-78
2023/05/20 06:42:23;;;;;;;6.07;2.83;;;15.30;1.00;;;;;;5007489;28;20077;-81
2023/05/20 06:45:02;;;;;;;3.95;2.78;;;15.40;1.00;;;;;;4984120;28;20397;-80
2023/05/20 06:47:36;;;;;;;3.72;2.70;;;15.50;1.00;;;;;;5006127;28;20042;-81
2023/05/20 06:50:03;;;;;;;3.60;2.30;;;15.40;1.00;;;;;;5010379;28;20034;-79
2023/05/20 06:52:30;;;;;;;3.40;2.53;;;15.50;1.00;;;;;;5013219;28;20610;-85
2023/05/20 06:54:56;;;;;;;6.88;3.72;;;15.40;1.00;;;;;;5027306;28;20038;-84
2023/05/20 06:57:23;;;;;;;4.78;2.55;;;15.50;1.00;;;;;;4992731;28;20044;-85
2023/05/20 06:59:49;;;;;;;3.33;2.25;;;15.70;1.00;;;;;;4994241;28;20049;-82
2023/05/20 07:02:16;;;;;;;3.90;2.50;;;15.70;1.00;;;;;;5009735;28;20053;-80
2023/05/20 07:04:43;;;;;;;3.22;2.10;;;16.00;1.00;;;;;;5012911;28;20045;-81
2023/05/20 07:07:09;;;;;;;4.90;2.75;;;16.40;1.00;;;;;;5010904;28;20065;-82
2023/05/20 07:09:35;;;;;;;4.15;2.17;;;16.80;1.00;;;;;;5007080;28;20455;-83
2023/05/20 07:12:02;;;;;;;5.13;2.58;;;17.40;1.00;;;;;;5010744;28;20447;-83
2023/05/20 07:14:29;;;;;;;3.55;2.45;;;17.70;1.00;;;;;;4998679;28;20053;-82
2023/05/20 07:16:55;;;;;;;3.80;2.35;;;18.50;1.00;;;;;;5015832;28;20037;-81
2023/05/20 07:19:22;;;;;;;4.32;2.90;;;18.20;1.00;;;;;;5011645;28;20025;-82
2023/05/20 07:21:48;;;;;;;5.68;2.72;;;17.30;1.00;;;;;;5000752;28;20489;-80
2023/05/20 07:24:18;;;;;;;3.97;2.28;;;17.00;1.00;;;;;;5032391;28;20048;-82
2023/05/20 07:26:44;;;;;;;3.03;2.10;;;16.90;1.00;;;;;;5016218;28;20045;-81
2023/05/20 07:29:11;;;;;;;6.63;2.80;;;16.80;1.00;;;;;;5014170;28;20036;-82
2023/05/20 07:31:38;;;;;;;4.32;2.83;;;17.20;1.00;;;;;;5017625;28;20037;-77
2023/05/20 07:34:04;;;;;;;7.20;3.30;;;17.50;1.00;;;;;;5031309;28;20398;-79
2023/05/20 07:36:31;;;;;;;6.97;2.78;;;17.30;1.00;;;;;;5030142;28;20053;-78
2023/05/20 07:39:02;;;;;;;5.90;2.97;;;17.30;1.00;;;;;;5013580;28;20038;-84
2023/05/20 07:41:30;;;;;;;4.55;2.50;;;18.00;1.00;;;;;;5030898;28;20735;-83
2023/05/20 07:43:57;;;;;;;3.50;2.53;;;18.70;1.00;;;;;;5016731;28;20474;-82
2023/05/20 07:46:24;;;;;;;4.38;2.80;;;19.10;1.00;;;;;;5012242;28;20141;-83
2023/05/20 07:48:50;;;;;;;3.60;2.33;;;19.90;1.00;;;;;;5013093;28;20045;-75
2023/05/20 07:51:17;;;;;;;5.30;2.40;;;20.70;99.90;;;;;;5016779;28;20084;-79
2023/05/20 07:53:44;;;;;;;5.82;3.50;;;20.60;99.90;;;;;;5016115;28;20033;-79
2023/05/20 07:56:10;;;;;;;3.90;2.80;;;19.10;1.00;;;;;;5017440;28;20030;-84
2023/05/20 07:58:40;;;;;;;3.53;2.45;;;18.80;1.00;;;;;;5016256;28;20030;-81
2023/05/20 08:01:08;;;;;;;5.53;2.92;;;18.20;1.00;;;;;;5011874;28;20379;-81
2023/05/20 08:03:35;;;;;;;3.78;2.78;;;17.60;1.00;;;;;;5014768;28;20030;-80
2023/05/20 08:06:07;;;;;;;5.80;2.63;;;17.30;1.00;;;;;;5010232;28;20050;-79
2023/05/20 08:08:35;;;;;;;3.95;3.08;;;17.60;1.00;;;;;;5009986;28;20060;-81
2023/05/20 08:11:09;;;;;;;5.05;2.83;;;18.80;1.00;;;;;;5005784;28;20040;-88
2023/05/20 08:13:37;;;;;;;4.10;3.05;;;18.70;1.00;;;;;;5011969;28;20152;-83
2023/05/20 08:16:05;;;;;;;4.35;2.72;;;19.20;1.00;;;;;;5014572;28;20033;-81
2023/05/20 08:18:33;;;;;;;4.78;2.85;;;19.50;99.90;;;;;;5007869;28;20030;-82
2023/05/20 08:20:59;;;;;;;4.75;2.28;;;19.90;1.00;;;;;;5026955;28;20391;-80
2023/05/20 08:23:26;;;;;;;3.38;2.53;;;20.70;99.90;;;;;;4994490;28;20063;-83
2023/05/20 08:25:52;;;;;;;4.05;2.38;;;20.20;99.90;;;;;;5010899;28;20030;-82
2023/05/20 08:28:21;;;;;;;4.93;3.00;;;20.20;99.90;;;;;;5007052;28;20037;-82
2023/05/20 08:30:47;;;;;;;3.97;2.38;;;20.40;99.90;;;;;;5009772;28;20486;-83
2023/05/20 08:33:14;;;;;;;7.43;3.45;;;20.10;99.90;;;;;;5025406;28;20038;-85
2023/05/20 08:35:41;;;;;;;4.45;2.97;;;20.20;99.90;;;;;;5010443;28;20049;-83
2023/05/20 08:38:07;;;;;;;3.70;3.10;;;19.80;99.90;;;;;;5010690;28;20042;-77
2023/05/20 08:40:36;;;;;;;6.30;3.15;;;21.50;99.90;;;;;;5013898;28;20029;-89
2023/05/20 08:43:03;;;;;;;3.40;2.80;;;21.30;99.90;;;;;;5009136;28;20049;-83
2023/05/20 08:45:35;;;;;;;4.70;3.00;;;21.00;99.90;;;;;;5010618;28;20034;-85
2023/05/20 08:48:06;;;;;;;3.92;2.42;;;21.00;99.90;;;;;;5010662;28;20380;-86
2023/05/20 08:50:32;;;;;;;5.40;3.05;;;21.90;99.90;;;;;;5010361;28;20029;-86
2023/05/20 08:52:59;;;;;;;4.47;3.25;;;22.10;99.90;;;;;;5008084;28;20037;-87
2023/05/20 08:55:45;;;;;;;3.88;2.95;;;21.60;99.90;;;;;;5008382;28;20041;-86
2023/05/20 08:58:14;;;;;;;4.70;3.35;;;21.50;99.90;;;;;;4985362;28;20391;-88
2023/05/20 09:00:40;;;;;;;4.85;3.20;;;21.00;99.90;;;;;;5011900;28;20030;-79
2023/05/20 09:03:07;;;;;;;5.45;3.40;;;20.80;99.90;;;;;;5013898;28;20040;-75
2023/05/20 09:05:34;;;;;;;5.28;3.63;;;21.70;99.90;;;;;;5013126;28;20087;-76
2023/05/20 09:08:08;;;;;;;4.63;3.50;;;21.80;99.90;;;;;;5013025;28;20030;-74
2023/05/20 09:10:35;;;;;;;7.15;3.55;;;22.30;99.90;;;;;;5008808;28;20098;-74
2023/05/20 09:13:03;;;;;;;4.68;2.97;;;22.50;99.90;;;;;;5003326;28;20025;-79
2023/05/20 09:15:33;;;;;;;5.38;3.58;;;22.90;99.90;;;;;;5001801;28;20362;-74
2023/05/20 09:18:05;;;;;;;4.55;2.88;;;22.50;99.90;;;;;;5012239;28;20049;-76
2023/05/20 09:20:39;;;;;;;3.80;3.40;;;22.30;99.90;;;;;;5008991;28;20475;-76
2023/05/20 09:23:08;;;;;;;5.03;3.10;;;21.90;99.90;;;;;;5013545;28;20363;-75
2023/05/20 09:25:36;;;;;;;6.15;3.83;;;21.40;99.90;;;;;;5010743;28;20029;-75
2023/05/20 09:28:04;;;;;;;5.05;3.28;;;21.60;99.90;;;;;;5011073;28;20040;-75
2023/05/20 09:30:31;;;;;;;5.40;3.10;;;21.10;99.90;;;;;;5012211;28;20026;-77
2023/05/20 09:33:00;;;;;;;6.05;4.28;;;21.30;99.90;;;;;;5012901;28;20030;-75
2023/05/20 09:35:27;;;;;;;5.85;2.92;;;21.90;99.90;;;;;;5010297;28;20049;-78
2023/05/20 09:37:55;;;;;;;6.75;3.65;;;22.30;99.90;;;;;;5012490;28;20029;-74
2023/05/20 09:40:28;;;;;;;4.72;3.28;;;22.00;99.90;;;;;;5010413;28;20037;-76
2023/05/20 09:43:00;;;;;;;3.53;3.17;;;22.70;99.90;;;;;;5012691;28;20026;-75
2023/05/20 09:45:27;;;;;;;4.65;4.10;;;21.90;99.90;;;;;;5010451;28;20491;-77
2023/05/20 09:47:55;;;;;;;3.78;3.30;;;21.60;99.90;;;;;;5009829;28;20038;-77
2023/05/20 09:50:23;;;;;;;3.53;2.72;;;21.50;99.90;;;;;;5011810;28;20033;-78
2023/05/20 09:52:51;;;;;;;4.00;3.08;;;21.70;99.90;;;;;;5012615;28;20097;-77
2023/05/20 09:55:19;;;;;;;7.47;3.40;;;21.90;99.90;;;;;;5012588;28;20040;-84
2023/05/20 09:57:46;;;;;;;4.82;3.70;;;21.80;99.90;;;;;;5000421;28;20053;-78
2023/05/20 10:00:16;;;;;;;7.53;3.38;;;21.60;99.90;;;;;;5012403;28;20029;-75
2023/05/20 10:02:50;;;;;;;4.00;3.33;;;21.70;99.90;;;;;;5012530;28;20022;-80
2023/05/20 10:05:30;;;;;;;6.15;3.80;;;21.00;99.90;;;;;;5007970;28;20045;-79
2023/05/20 10:08:30;;;;;;;4.88;3.45;;;20.60;99.90;;;;;;5004912;28;20494;-78
2023/05/20 10:11:02;;;;;;;4.57;3.50;;;20.70;99.90;;;;;;5025913;28;20045;-74
2023/05/20 10:13:47;;;;;;;6.32;3.67;;;20.90;99.90;;;;;;5011762;28;20022;-75
2023/05/20 10:16:45;;;;;;;5.78;3.50;;;21.00;99.90;;;;;;5008116;28;20048;-75
2023/05/20 10:19:17;;;;;;;4.38;3.70;;;21.30;99.90;;;;;;5000571;28;20038;-75
2023/05/20 10:21:43;;;;;;;9.15;3.10;;;21.40;99.90;;;;;;5011657;28;20041;-76
2023/05/20 10:24:10;;;;;;;4.10;3.08;;;21.80;99.90;;;;;;5010801;28;20026;-74
2023/05/20 10:26:38;;;;;;;6.15;3.33;;;22.00;99.90;;;;;;5006122;28;20038;-72
2023/05/20 10:29:17;;;;;;;4.63;3.70;;;21.80;99.90;;;;;;5012397;28;20042;-73
2023/05/20 10:31:47;;;;;;;4.17;3.17;;;21.60;99.90;;;;;;5010891;28;20026;-75
2023/05/20 10:34:15;;;;;;;4.57;3.53;;;22.00;99.90;;;;;;5011473;28;20288;-76
2023/05/20 10:36:46;;;;;;;6.10;3.38;;;21.90;99.90;;;;;;5009863;28;20361;-74
2023/05/20 10:39:16;;;;;;;4.65;3.67;;;21.20;99.90;;;;;;5007337;28;20042;-75
2023/05/20 10:41:42;;;;;;;4.60;3.42;;;21.30;99.90;;;;;;5022866;28;20029;-76
2023/05/20 10:44:09;;;;;;;4.65;3.45;;;21.40;99.90;;;;;;5013849;28;20045;-76
2023/05/20 10:46:35;;;;;;;6.70;3.88;;;21.50;99.90;;;;;;5009079;28;20029;-75
2023/05/20 10:49:02;;;;;;;6.75;3.30;;;21.40;99.90;;;;;;5011954;28;20030;-79
2023/05/20 10:51:30;;;;;;;5.18;3.60;;;21.60;99.90;;;;;;5007620;28;20034;-75
2023/05/20 10:53:57;;;;;;;4.07;3.13;;;21.90;99.90;;;;;;5011102;28;20030;-76
2023/05/20 10:56:25;;;;;;;6.40;3.92;;;21.30;99.90;;;;;;5009359;28;20037;-75
2023/05/20 10:58:52;;;;;;;5.28;3.75;;;21.20;99.90;;;;;;5009216;28;20037;-76
2023/05/20 11:01:25;;;;;;;5.85;4.30;;;21.40;99.90;;;;;;5024859;28;20464;-79
2023/05/20 11:03:54;;;;;;;7.38;4.22;;;21.40;99.90;;;;;;5011873;28;20030;-78
2023/05/20 11:06:27;;;;;;;3.80;3.40;;;21.30;99.90;;;;;;5009577;28;20034;-82
2023/05/20 11:08:53;;;;;;;8.07;3.88;;;21.50;99.90;;;;;;5026339;28;20030;-77
2023/05/20 11:11:21;;;;;;;5.30;3.38;;;21.70;99.90;;;;;;5010889;28;20037;-82
2023/05/20 11:13:51;;;;;;;4.57;3.63;;;21.80;99.90;;;;;;5008187;28;20160;-76
2023/05/20 11:16:20;;;;;;;4.88;3.58;;;21.90;99.90;;;;;;4991729;28;20061;-78
2023/05/20 11:18:48;;;;;;;6.22;4.05;;;22.30;99.90;;;;;;5010903;28;20026;-78
2023/05/20 11:21:15;;;;;;;3.80;3.15;;;22.00;99.90;;;;;;5026474;28;20044;-76
2023/05/20 11:23:41;;;;;;;4.45;3.97;;;21.90;99.90;;;;;;5010349;28;20030;-81
2023/05/20 11:26:07;;;;;;;6.65;3.92;;;22.20;99.90;;;;;;5009894;28;20030;-77
2023/05/20 11:28:34;;;;;;;6.20;3.63;;;22.30;99.90;;;;;;5007991;28;20375;-75
2023/05/20 11:31:01;;;;;;;7.43;3.65;;;22.20;99.90;;;;;;5011318;28;20026;-75
2023/05/20 11:33:28;;;;;;;5.63;3.95;;;22.20;99.90;;;;;;5010163;28;20026;-77
2023/05/20 11:35:56;;;;;;;4.85;4.18;;;22.40;99.90;;;;;;5009747;28;20038;-77
2023/05/20 11:38:22;;;;;;;5.35;4.18;;;22.80;99.90;;;;;;5009572;28;20061;-80
2023/05/20 11:40:54;;;;;;;5.35;3.80;;;23.10;99.90;;;;;;5011035;28;20451;-74
2023/05/20 11:43:23;;;;;;;6.28;4.07;;;22.50;99.90;;;;;;5010601;28;20026;-84
2023/05/20 11:45:59;;;;;;;5.05;4.18;;;22.70;99.90;;;;;;5009890;28;20038;-75
2023/05/20 11:48:26;;;;;;;4.65;3.60;;;22.50;99.90;;;;;;5001201;28;20048;-75
2023/05/20 11:50:53;;;;;;;7.88;3.30;;;22.10;99.90;;;;;;5012922;28;20383;-79
2023/05/20 11:53:22;;;;;;;5.13;3.65;;;22.10;99.90;;;;;;4996161;28;20044;-75
2023/05/20 11:55:57;;;;;;;4.55;3.70;;;22.30;99.90;;;;;;5013151;28;20037;-76
2023/05/20 11:58:25;;;;;;;5.03;4.18;;;22.70;99.90;;;;;;5007224;28;20073;-75
2023/05/20 12:00:51;;;;;;;5.03;3.92;;;22.50;99.90;;;;;;5014922;28;20033;-77
2023/05/20 12:03:17;;;;;;;4.43;3.17;;;22.10;99.90;;;;;;5014790;28;20463;-76
2023/05/20 12:05:46;;;;;;;5.40;4.07;;;22.10;99.90;;;;;;5012399;28;20118;-76
2023/05/20 12:08:12;;;;;;;6.03;4.20;;;22.40;99.90;;;;;;5014277;28;20040;-78
2023/05/20 12:10:39;;;;;;;6.97;3.83;;;22.40;99.90;;;;;;5013629;28;20045;-75
2023/05/20 12:13:11;;;;;;;6.10;4.40;;;21.90;99.90;;;;;;5016820;28;20034;-77
2023/05/20 12:15:38;;;;;;;6.13;4.20;;;21.90;99.90;;;;;;5011879;28;20030;-75
2023/05/20 12:18:05;;;;;;;4.82;3.90;;;22.20;99.90;;;;;;5013386;28;20053;-82
2023/05/20 12:20:33;;;;;;;5.00;4.35;;;22.70;99.90;;;;;;5010486;28;20030;-74
2023/05/20 12:23:00;;;;;;;5.60;4.03;;;22.60;99.90;;;;;;5014258;28;20447;-79
2023/05/20 12:25:26;;;;;;;5.22;3.97;;;22.60;99.90;;;;;;5009302;28;20045;-78
2023/05/20 12:27:52;;;;;;;6.68;4.82;;;22.70;99.90;;;;;;5014434;28;20029;-80
2023/05/20 12:30:20;;;;;;;6.65;4.20;;;22.80;99.90;;;;;;5015875;28;20502;-80
2023/05/20 12:32:48;;;;;;;6.05;4.28;;;22.30;99.90;;;;;;5012771;28;20037;-77
2023/05/20 12:35:15;;;;;;;5.70;4.43;;;21.90;99.90;;;;;;5012778;28;20053;-76
2023/05/20 12:37:42;;;;;;;6.22;5.07;;;21.60;99.90;;;;;;5013538;28;20042;-75
2023/05/20 12:40:10;;;;;;;4.78;4.13;;;21.70;99.90;;;;;;5011837;28;20029;-78
2023/05/20 12:42:38;;;;;;;5.65;4.40;;;21.60;99.90;;;;;;5007086;28;20030;-79
2023/05/20 12:45:05;;;;;;;6.95;3.95;;;21.70;99.90;;;;;;5012921;28;20026;-84
2023/05/20 12:47:32;;;;;;;7.22;4.18;;;21.90;99.90;;;;;;4995859;28;20494;-85
2023/05/20 12:49:58;;;;;;;9.35;4.50;;;22.00;99.90;;;;;;5028902;28;20037;-79
2023/05/20 12:52:25;;;;;;;5.72;4.22;;;22.20;99.90;;;;;;5013854;28;20029;-83
2023/05/20 12:54:55;;;;;;;10.32;5.45;;;22.40;99.90;;;;;;5012874;28;20030;-85